KCZZ

Campo Airport

Campo, California, USA
METAR KCZZ 162152Z AUTO 25009KT 21/M08 A3009 RMK AO1 SLP172 T02111078
Observed Flight Rules
Dec-16 @ 21:52 UTC (11 minutes ago)
Wind
250° at 9 knots
Temperatures Readings
Current 21°C / 70°F
Dewpoint -8°C / 18°F
Humidity 13%
Altimeter 30.09" Hg
Pressure 1017.2 hPa
Elevation 807
METAR KCZZ 162152Z AUTO 25009KT 21/M08 A3009 RMK AO1 SLP172 T02111078
Observed Flight Rules
Dec-16 @ 21:52 UTC
(11 minutes ago)
Wind
250° at 9 knots
Temperature Dewpoint
21°C / 70°F -8°C / 18°F
Humidity Altimeter Pressure
13% 30.09" Hg 1017.2 hPa